createdAt,value
2022-10-11T00:01:26.253Z,12.70
2022-10-11T00:03:52.961Z,13.60
2022-10-11T00:06:19.641Z,13.20
2022-10-11T00:08:46.180Z,14.00
2022-10-11T00:11:12.592Z,13.60
2022-10-11T00:13:39.160Z,14.60
2022-10-11T00:16:12.664Z,12.80
2022-10-11T00:18:39.712Z,12.70
2022-10-11T00:21:09.643Z,11.80
2022-10-11T00:23:37.195Z,12.60
2022-10-11T00:26:06.700Z,13.10
2022-10-11T00:28:34.869Z,13.30
2022-10-11T00:31:02.188Z,12.60
2022-10-11T00:33:29.161Z,12.90
2022-10-11T00:35:55.784Z,20.10
2022-10-11T00:38:22.354Z,14.90
2022-10-11T00:40:48.921Z,12.90
2022-10-11T00:43:18.865Z,12.80
2022-10-11T00:45:57.459Z,11.70
2022-10-11T00:48:40.736Z,12.20
2022-10-11T00:51:33.863Z,11.50
2022-10-11T00:54:02.245Z,11.60
2022-10-11T00:56:36.409Z,12.00
2022-10-11T00:59:08.787Z,11.20
2022-10-11T01:01:35.409Z,11.30
2022-10-11T01:04:02.640Z,11.10
2022-10-11T01:06:29.583Z,10.90
2022-10-11T01:08:56.435Z,10.80
2022-10-11T01:11:25.477Z,10.70
2022-10-11T01:14:11.629Z,11.40
2022-10-11T01:17:30.838Z,9.70
2022-10-11T01:20:30.737Z,12.10
2022-10-11T01:23:28.291Z,11.10
2022-10-11T01:26:13.373Z,10.10
2022-10-11T01:29:04.903Z,12.30
2022-10-11T01:31:34.111Z,11.30
2022-10-11T01:34:11.041Z,11.50
2022-10-11T01:36:49.095Z,11.50
2022-10-11T01:39:32.839Z,11.70
2022-10-11T01:42:03.391Z,11.30
2022-10-11T01:44:31.760Z,11.00
2022-10-11T01:46:58.399Z,10.60
2022-10-11T01:49:24.808Z,10.80
2022-10-11T01:51:55.168Z,11.20
2022-10-11T01:55:03.951Z,10.30
2022-10-11T01:57:43.951Z,10.40
2022-10-11T02:00:22.229Z,10.20
2022-10-11T02:03:16.153Z,11.50
2022-10-11T02:05:55.492Z,10.70
2022-10-11T02:08:34.333Z,11.80
2022-10-11T02:11:06.860Z,11.10
2022-10-11T02:13:44.322Z,11.80
2022-10-11T02:16:16.498Z,11.80
2022-10-11T02:18:47.618Z,11.10
2022-10-11T02:21:18.354Z,11.60
2022-10-11T02:23:53.625Z,12.40
2022-10-11T02:26:21.972Z,10.50
2022-10-11T02:28:51.771Z,11.00
2022-10-11T02:31:20.589Z,11.50
2022-10-11T02:34:11.855Z,11.40
2022-10-11T02:36:51.129Z,11.80
2022-10-11T02:39:25.921Z,12.50
2022-10-11T02:41:56.011Z,12.10
2022-10-11T02:44:43.843Z,13.10
2022-10-11T02:47:11.508Z,12.90
2022-10-11T02:49:38.355Z,12.80
2022-10-11T02:52:06.636Z,13.50
2022-10-11T02:54:33.232Z,12.30
2022-10-11T02:56:59.722Z,13.50
2022-10-11T02:59:26.267Z,12.90
2022-10-11T03:01:52.889Z,13.20
2022-10-11T03:04:19.497Z,13.70
2022-10-11T03:06:46.090Z,13.30
2022-10-11T03:09:12.636Z,13.10
2022-10-11T03:11:39.168Z,12.90
2022-10-11T03:14:05.912Z,13.00
2022-10-11T03:16:32.452Z,14.00
2022-10-11T03:18:58.923Z,13.40
2022-10-11T03:21:25.457Z,12.60
2022-10-11T03:23:52.071Z,13.30
2022-10-11T03:26:18.620Z,12.90
2022-10-11T03:28:45.292Z,12.20
2022-10-11T03:31:11.779Z,12.70
2022-10-11T03:33:38.472Z,12.80
2022-10-11T03:36:05.888Z,12.80
2022-10-11T03:38:33.357Z,12.90
2022-10-11T03:40:59.774Z,11.70
2022-10-11T03:43:26.337Z,11.90
2022-10-11T03:45:52.978Z,12.70
2022-10-11T03:48:19.543Z,12.80
2022-10-11T03:50:46.167Z,11.40
2022-10-11T03:53:12.591Z,14.30
2022-10-11T03:55:39.975Z,14.80
2022-10-11T03:58:07.526Z,15.40
2022-10-11T04:00:34.803Z,14.70
2022-10-11T04:03:01.832Z,15.10
2022-10-11T04:05:28.371Z,15.60
2022-10-11T04:07:54.817Z,13.20
2022-10-11T04:10:21.563Z,12.50
2022-10-11T04:12:48.095Z,13.40
2022-10-11T04:15:14.564Z,13.70
2022-10-11T04:17:41.687Z,13.90
2022-10-11T04:20:09.401Z,13.30
2022-10-11T04:22:36.011Z,13.20
2022-10-11T04:25:02.538Z,12.30
2022-10-11T04:27:29.690Z,12.60
2022-10-11T04:29:56.233Z,12.00
2022-10-11T04:32:22.773Z,12.00
2022-10-11T04:34:49.291Z,12.20
2022-10-11T04:37:15.754Z,12.60
2022-10-11T04:39:42.195Z,14.80
2022-10-11T04:42:08.796Z,13.70
2022-10-11T04:44:35.484Z,13.20
2022-10-11T04:47:02.020Z,13.20
2022-10-11T04:49:28.672Z,12.40
2022-10-11T04:51:55.204Z,12.40
2022-10-11T04:54:21.949Z,11.70
2022-10-11T04:56:48.541Z,12.80
2022-10-11T04:59:15.130Z,12.50
2022-10-11T05:01:41.912Z,13.10
2022-10-11T05:04:08.824Z,12.60
2022-10-11T05:06:35.298Z,14.20
2022-10-11T05:09:01.806Z,13.90
2022-10-11T05:11:28.694Z,14.00
2022-10-11T05:13:55.111Z,12.80
2022-10-11T05:16:21.638Z,13.70
2022-10-11T05:18:48.692Z,12.90
2022-10-11T05:21:19.480Z,12.40
2022-10-11T05:23:47.709Z,9.20
2022-10-11T05:26:15.029Z,11.50
2022-10-11T05:28:41.698Z,12.00
2022-10-11T05:31:08.354Z,12.20
2022-10-11T05:33:34.893Z,10.40
2022-10-11T05:36:01.665Z,11.50
2022-10-11T05:38:28.581Z,14.20
2022-10-11T05:40:55.229Z,16.20
2022-10-11T05:43:21.768Z,14.00
2022-10-11T05:45:49.434Z,17.20
2022-10-11T05:48:15.973Z,11.60
2022-10-11T05:50:42.516Z,10.40
2022-10-11T05:53:09.369Z,10.60
2022-10-11T05:55:43.383Z,9.50
2022-10-11T05:58:15.007Z,9.70
2022-10-11T06:00:41.490Z,9.50
2022-10-11T06:03:09.022Z,9.60
2022-10-11T06:05:36.000Z,9.00
2022-10-11T06:08:04.207Z,10.10
2022-10-11T06:10:30.718Z,9.60
2022-10-11T06:12:57.568Z,9.90
2022-10-11T06:15:24.921Z,9.70
2022-10-11T06:17:51.464Z,9.40
2022-10-11T06:20:17.958Z,9.00
2022-10-11T06:22:44.421Z,9.90
2022-10-11T06:25:10.937Z,9.30
2022-10-11T06:27:37.420Z,8.70
2022-10-11T06:30:05.294Z,8.70
2022-10-11T06:32:32.088Z,8.90
2022-10-11T06:34:58.683Z,8.20
2022-10-11T06:37:25.226Z,10.10
2022-10-11T06:39:52.072Z,9.40
2022-10-11T06:42:18.481Z,10.00
2022-10-11T06:44:44.886Z,9.40
2022-10-11T06:47:11.390Z,10.30
2022-10-11T06:49:37.829Z,10.00
2022-10-11T06:52:05.059Z,10.60
2022-10-11T06:54:31.518Z,11.10
2022-10-11T06:56:57.964Z,11.20
2022-10-11T06:59:24.509Z,12.00
2022-10-11T07:01:51.256Z,11.00
2022-10-11T07:04:17.792Z,11.50
2022-10-11T07:06:44.233Z,10.60
2022-10-11T07:09:10.771Z,10.50
2022-10-11T07:11:37.412Z,9.50
2022-10-11T07:14:06.361Z,10.00
2022-10-11T07:16:34.589Z,10.20
2022-10-11T07:19:02.568Z,10.00
2022-10-11T07:21:30.850Z,9.80
2022-10-11T07:23:57.346Z,9.40
2022-10-11T07:26:23.952Z,10.80
2022-10-11T07:28:50.496Z,10.80
2022-10-11T07:31:20.233Z,10.80
2022-10-11T07:33:46.725Z,10.00
2022-10-11T07:36:14.194Z,10.20
2022-10-11T07:38:42.659Z,11.00
2022-10-11T07:41:10.188Z,10.20
2022-10-11T07:43:37.585Z,9.80
2022-10-11T07:46:05.938Z,9.80
2022-10-11T07:48:34.553Z,9.90
2022-10-11T07:51:17.400Z,10.80
2022-10-11T07:53:46.807Z,10.30
2022-10-11T07:56:15.476Z,11.90
2022-10-11T07:58:42.879Z,10.50
2022-10-11T08:01:11.470Z,10.60
2022-10-11T08:03:38.726Z,10.20
2022-10-11T08:06:08.784Z,10.90
2022-10-11T08:08:36.910Z,11.70
2022-10-11T08:11:04.079Z,12.60
2022-10-11T08:13:31.113Z,13.00
2022-10-11T08:15:58.080Z,12.90
2022-10-11T08:18:24.734Z,12.30
2022-10-11T08:20:51.261Z,11.00
2022-10-11T08:23:18.884Z,11.20
2022-10-11T08:25:47.400Z,10.60
2022-10-11T08:28:14.730Z,11.70
2022-10-11T08:30:47.887Z,17.20
2022-10-11T08:33:14.366Z,15.40
2022-10-11T08:35:40.818Z,14.50
2022-10-11T08:38:07.268Z,15.70
2022-10-11T08:40:35.432Z,15.20
2022-10-11T08:43:06.424Z,15.50
2022-10-11T08:45:42.726Z,15.50
2022-10-11T08:48:23.179Z,15.00
2022-10-11T08:50:52.459Z,16.30
2022-10-11T08:53:46.464Z,16.10
2022-10-11T08:56:15.420Z,12.60
2022-10-11T08:59:00.847Z,13.30
2022-10-11T09:01:29.345Z,12.80
2022-10-11T09:03:56.785Z,13.40
2022-10-11T09:06:23.295Z,13.40
2022-10-11T09:08:54.832Z,14.10
2022-10-11T09:11:43.952Z,14.30
2022-10-11T09:15:09.033Z,13.20
2022-10-11T09:17:56.867Z,13.70
2022-10-11T09:20:48.398Z,12.90
2022-10-11T09:23:26.919Z,14.80
2022-10-11T09:25:58.892Z,15.30
2022-10-11T09:28:51.396Z,14.30
2022-10-11T09:31:17.987Z,14.10
2022-10-11T09:33:47.709Z,14.50
2022-10-11T09:36:17.125Z,14.30
2022-10-11T09:38:47.714Z,14.20
2022-10-11T09:41:22.063Z,13.70
2022-10-11T09:43:50.884Z,14.00
2022-10-11T09:46:22.215Z,15.10
2022-10-11T09:48:48.874Z,13.50
2022-10-11T09:51:20.732Z,15.70
2022-10-11T09:54:03.763Z,17.40
2022-10-11T09:56:33.071Z,15.90
2022-10-11T09:59:16.194Z,15.00
2022-10-11T10:01:42.666Z,15.70
2022-10-11T10:04:12.576Z,19.00
2022-10-11T10:06:39.658Z,19.80
2022-10-11T10:09:28.708Z,19.70
2022-10-11T10:11:57.641Z,20.30
2022-10-11T10:14:29.039Z,19.30
2022-10-11T10:17:05.476Z,19.60
2022-10-11T10:19:44.726Z,17.80
2022-10-11T10:22:22.855Z,17.20
2022-10-11T10:24:51.478Z,17.10
2022-10-11T10:27:24.076Z,17.50
2022-10-11T10:30:02.825Z,17.10
2022-10-11T10:33:05.870Z,17.70
2022-10-11T10:35:33.857Z,16.20
2022-10-11T10:38:08.959Z,16.40
2022-10-11T10:40:43.030Z,17.50
2022-10-11T10:43:13.988Z,18.60
2022-10-11T10:49:11.624Z,19.60
2022-10-11T10:51:36.847Z,18.80
2022-10-11T10:54:19.562Z,18.60
2022-10-11T10:57:34.231Z,17.20
2022-10-11T11:00:04.969Z,16.50
2022-10-11T11:02:56.322Z,16.40
2022-10-11T11:05:39.950Z,16.00
2022-10-11T11:08:09.442Z,16.10
2022-10-11T11:11:00.199Z,15.00
2022-10-11T11:14:02.018Z,15.70
2022-10-11T11:16:37.773Z,15.70
2022-10-11T11:19:32.782Z,17.50
2022-10-11T11:22:16.125Z,17.80
2022-10-11T11:25:00.578Z,18.60
2022-10-11T11:27:39.042Z,20.20
2022-10-11T11:30:19.049Z,19.80
2022-10-11T11:33:00.341Z,20.10
2022-10-11T11:35:46.143Z,18.20
2022-10-11T11:38:29.748Z,17.80
2022-10-11T11:41:04.344Z,17.30
2022-10-11T11:43:39.714Z,19.20
2022-10-11T11:46:16.180Z,17.30
2022-10-11T11:48:43.987Z,17.30
2022-10-11T11:51:21.079Z,19.80
2022-10-11T11:53:58.572Z,18.10
2022-10-11T11:56:38.015Z,18.40
2022-10-11T11:59:40.270Z,15.50
2022-10-11T12:02:36.206Z,13.20
2022-10-11T12:05:06.717Z,14.30
2022-10-11T12:07:57.570Z,12.40
2022-10-11T12:10:30.962Z,12.40
2022-10-11T12:13:15.326Z,13.60
2022-10-11T12:16:14.764Z,11.50
2022-10-11T12:18:56.843Z,11.90
2022-10-11T12:21:26.389Z,13.30
2022-10-11T12:23:54.952Z,13.60
2022-10-11T12:26:27.528Z,13.60
2022-10-11T12:29:12.909Z,13.00
2022-10-11T12:31:42.487Z,14.80
2022-10-11T12:34:34.251Z,13.90
2022-10-11T12:37:20.797Z,13.60
2022-10-11T12:39:57.536Z,13.80
2022-10-11T12:42:31.203Z,13.20
2022-10-11T12:45:13.016Z,14.70
2022-10-11T12:47:57.046Z,15.00
2022-10-11T12:50:32.849Z,14.80
2022-10-11T12:53:12.043Z,14.10
2022-10-11T12:56:12.415Z,14.90
2022-10-11T12:58:40.525Z,14.80
2022-10-11T13:01:14.527Z,15.50
2022-10-11T13:03:44.169Z,16.20
2022-10-11T13:06:33.658Z,15.60
2022-10-11T13:09:13.617Z,14.60
2022-10-11T13:11:53.259Z,15.00
2022-10-11T13:14:23.972Z,14.70
2022-10-11T13:17:05.332Z,14.20
2022-10-11T13:19:34.538Z,15.10
2022-10-11T13:22:05.451Z,15.00
2022-10-11T13:27:04.912Z,14.70
2022-10-11T13:29:36.163Z,16.00
2022-10-11T13:32:21.389Z,16.40
2022-10-11T13:34:52.659Z,16.40
2022-10-11T13:37:22.488Z,18.10
2022-10-11T13:39:52.207Z,16.60
2022-10-11T13:42:21.512Z,16.30
2022-10-11T13:44:48.283Z,17.70
2022-10-11T13:47:17.698Z,20.00
2022-10-11T13:49:47.073Z,19.80
2022-10-11T13:52:23.840Z,19.00
2022-10-11T13:54:53.257Z,18.90
2022-10-11T13:57:32.545Z,18.10
2022-10-11T13:59:59.542Z,17.10
2022-10-11T14:02:27.759Z,19.30
2022-10-11T14:04:54.470Z,21.30
2022-10-11T14:07:29.815Z,19.10
2022-10-11T14:09:56.661Z,18.80
2022-10-11T14:12:38.661Z,18.60
2022-10-11T14:15:38.195Z,20.20
2022-10-11T14:18:53.264Z,21.10
2022-10-11T14:21:19.810Z,30.00
2022-10-11T14:23:46.239Z,44.00
2022-10-11T14:26:18.916Z,26.10
2022-10-11T14:28:49.363Z,19.80
2022-10-11T14:31:15.851Z,18.30
2022-10-11T14:33:42.448Z,19.20
2022-10-11T14:36:09.192Z,19.50
2022-10-11T14:38:35.834Z,19.80
2022-10-11T14:41:02.269Z,28.50
2022-10-11T14:43:28.813Z,19.40
2022-10-11T14:45:55.350Z,19.80
2022-10-11T14:48:42.895Z,18.30
2022-10-11T14:51:12.756Z,20.00
2022-10-11T14:56:07.863Z,20.10
2022-10-11T14:58:34.828Z,18.30
2022-10-11T15:01:01.414Z,17.70
2022-10-11T15:03:27.947Z,19.50
2022-10-11T15:05:54.444Z,19.90
2022-10-11T15:08:20.928Z,20.00
2022-10-11T15:10:47.467Z,29.30
2022-10-11T15:13:14.007Z,30.30
2022-10-11T15:15:40.879Z,26.50
2022-10-11T15:18:11.083Z,28.20
2022-10-11T15:20:40.987Z,32.70
2022-10-11T15:23:09.457Z,28.10
2022-10-11T15:25:36.502Z,30.30
2022-10-11T15:28:04.498Z,29.80
2022-10-11T15:30:38.530Z,33.10
2022-10-11T15:33:07.839Z,34.10
2022-10-11T15:35:34.379Z,30.90
2022-10-11T15:38:00.829Z,29.80
2022-10-11T15:40:35.382Z,33.30
2022-10-11T15:43:03.381Z,25.20
2022-10-11T15:45:30.758Z,24.60
2022-10-11T15:47:57.464Z,24.40
2022-10-11T15:50:30.818Z,24.20
2022-10-11T15:52:57.271Z,25.30
2022-10-11T15:55:23.800Z,22.20
2022-10-11T15:57:50.290Z,19.90
2022-10-11T16:00:21.368Z,21.60
2022-10-11T16:02:50.992Z,23.90
2022-10-11T16:05:22.401Z,20.30
2022-10-11T16:07:48.896Z,23.50
2022-10-11T16:10:15.536Z,24.10
2022-10-11T16:12:42.183Z,25.00
2022-10-11T16:15:10.051Z,26.30
2022-10-11T16:17:37.020Z,25.50
2022-10-11T16:20:04.766Z,30.60
2022-10-11T16:22:31.203Z,25.40
2022-10-11T16:24:57.690Z,34.00
2022-10-11T16:27:24.184Z,42.90
2022-10-11T16:29:50.935Z,40.70
2022-10-11T16:32:17.454Z,49.50
2022-10-11T16:34:44.106Z,36.20
2022-10-11T16:37:10.691Z,31.40
2022-10-11T16:39:37.176Z,78.60
2022-10-11T16:42:03.729Z,84.10
2022-10-11T16:44:30.454Z,34.20
2022-10-11T16:46:56.887Z,43.30
2022-10-11T16:49:26.362Z,80.90
2022-10-11T16:51:55.014Z,37.70
2022-10-11T16:54:22.365Z,34.50
2022-10-11T16:56:49.866Z,43.30
2022-10-11T16:59:16.795Z,48.30
2022-10-11T17:01:43.523Z,46.80
2022-10-11T17:04:10.065Z,46.50
2022-10-11T17:06:37.012Z,44.00
2022-10-11T17:09:04.342Z,55.00
2022-10-11T17:11:30.912Z,54.10
2022-10-11T17:13:57.412Z,71.20
2022-10-11T17:16:23.893Z,71.10
2022-10-11T17:18:50.637Z,83.10
2022-10-11T17:21:18.714Z,88.00
2022-10-11T17:23:46.076Z,218.30
2022-10-11T17:26:17.346Z,144.50
2022-10-11T17:28:44.188Z,107.30
2022-10-11T17:31:10.782Z,82.50
2022-10-11T17:33:37.969Z,68.60
2022-10-11T17:36:18.747Z,63.80
2022-10-11T17:38:45.586Z,57.40
2022-10-11T17:41:12.306Z,70.30
2022-10-11T17:43:38.876Z,53.90
2022-10-11T17:46:06.824Z,61.20
2022-10-11T17:48:35.572Z,54.60
2022-10-11T17:51:17.837Z,58.50
2022-10-11T17:53:46.636Z,57.40
2022-10-11T17:56:16.020Z,64.30
2022-10-11T17:58:43.301Z,71.40
2022-10-11T18:01:18.912Z,79.10
2022-10-11T18:03:55.119Z,121.00
2022-10-11T18:06:21.995Z,102.80
2022-10-11T18:08:48.709Z,117.50
2022-10-11T18:11:17.779Z,96.70
2022-10-11T18:13:48.032Z,106.40
2022-10-11T18:16:17.437Z,89.20
2022-10-11T18:18:44.234Z,94.20
2022-10-11T18:21:11.177Z,117.20
2022-10-11T18:23:38.183Z,63.50
2022-10-11T18:26:13.488Z,68.60
2022-10-11T18:28:40.934Z,64.90
2022-10-11T18:31:13.471Z,65.20
2022-10-11T18:33:41.567Z,75.40
2022-10-11T18:36:09.383Z,84.40
2022-10-11T18:38:36.564Z,63.10
2022-10-11T18:41:08.290Z,55.20
2022-10-11T18:43:35.582Z,65.60
2022-10-11T18:46:13.705Z,60.70
2022-10-11T18:48:42.290Z,57.20
2022-10-11T18:51:33.519Z,56.40
2022-10-11T18:54:00.872Z,59.90
2022-10-11T18:56:29.280Z,55.10
2022-10-11T18:58:57.439Z,52.90
2022-10-11T19:01:29.401Z,55.20
2022-10-11T19:03:58.025Z,61.70
2022-10-11T19:06:28.241Z,68.20
2022-10-11T19:09:00.136Z,57.70
2022-10-11T19:11:27.142Z,50.60
2022-10-11T19:14:03.351Z,51.00
2022-10-11T19:16:30.771Z,52.60
2022-10-11T19:18:58.031Z,50.50
2022-10-11T19:21:25.494Z,64.70
2022-10-11T19:23:52.754Z,53.80
2022-10-11T19:26:28.105Z,49.10
2022-10-11T19:29:03.661Z,53.20
2022-10-11T19:31:31.986Z,52.20
2022-10-11T19:33:59.498Z,47.70
2022-10-11T19:36:27.179Z,58.50
2022-10-11T19:38:54.626Z,51.20
2022-10-11T19:41:21.048Z,49.50
2022-10-11T19:43:47.707Z,48.20
2022-10-11T19:46:27.303Z,48.60
2022-10-11T19:49:02.618Z,58.30
2022-10-11T19:51:30.378Z,56.30
2022-10-11T19:53:58.771Z,54.20
2022-10-11T19:56:27.084Z,48.10
2022-10-11T19:58:54.441Z,49.70
2022-10-11T20:01:23.231Z,49.00
2022-10-11T20:04:01.586Z,48.20
2022-10-11T20:06:28.767Z,46.80
2022-10-11T20:09:24.019Z,43.90
2022-10-11T20:11:42.950Z,43.90
2022-10-11T20:14:09.389Z,45.60
2022-10-11T20:16:35.929Z,43.60
2022-10-11T20:19:02.573Z,44.70
2022-10-11T20:21:30.242Z,42.90
2022-10-11T20:24:00.289Z,42.80
2022-10-11T20:26:28.171Z,43.80
2022-10-11T20:28:56.174Z,44.10
2022-10-11T20:31:31.871Z,46.80
2022-10-11T20:34:00.968Z,50.60
2022-10-11T20:36:29.246Z,54.40
2022-10-11T20:38:56.812Z,66.60
2022-10-11T20:41:26.832Z,60.00
2022-10-11T20:43:56.137Z,60.80
2022-10-11T20:46:25.030Z,61.00
2022-10-11T20:48:58.908Z,58.90
2022-10-11T20:51:29.507Z,60.10
2022-10-11T20:53:59.399Z,60.80
2022-10-11T20:56:25.937Z,60.30
2022-10-11T20:58:55.485Z,54.00
2022-10-11T21:01:28.376Z,48.00
2022-10-11T21:03:57.668Z,40.50
2022-10-11T21:06:24.792Z,38.90
2022-10-11T21:08:51.217Z,39.20
2022-10-11T21:11:17.677Z,38.10
2022-10-11T21:13:44.207Z,40.60
2022-10-11T21:16:15.776Z,39.60
2022-10-11T21:18:42.576Z,38.40
2022-10-11T21:21:14.816Z,36.30
2022-10-11T21:23:42.064Z,34.40
2022-10-11T21:26:11.792Z,37.70
2022-10-11T21:28:39.464Z,39.00
2022-10-11T21:31:08.560Z,40.40
2022-10-11T21:33:36.308Z,46.10
2022-10-11T21:36:05.085Z,53.10
2022-10-11T21:38:31.832Z,52.60
2022-10-11T21:40:58.354Z,43.70
2022-10-11T21:43:24.820Z,43.90
2022-10-11T21:45:51.359Z,41.50
2022-10-11T21:48:17.847Z,39.80
2022-10-11T21:50:44.265Z,41.60
2022-10-11T21:53:10.703Z,57.20
2022-10-11T21:55:37.212Z,67.70
2022-10-11T21:58:03.652Z,69.70
2022-10-11T22:00:30.307Z,70.90
2022-10-11T22:02:56.834Z,71.40
2022-10-11T22:05:23.264Z,75.70
2022-10-11T22:07:49.812Z,79.50
2022-10-11T22:10:16.331Z,97.90
2022-10-11T22:12:42.900Z,79.80
2022-10-11T22:15:10.052Z,79.40
2022-10-11T22:17:36.595Z,80.80
2022-10-11T22:20:03.386Z,59.30
2022-10-11T22:22:29.825Z,48.30
2022-10-11T22:24:56.425Z,49.90
2022-10-11T22:27:23.007Z,45.50
2022-10-11T22:29:49.452Z,48.00
2022-10-11T22:32:15.953Z,46.10
2022-10-11T22:34:42.703Z,44.70
2022-10-11T22:37:09.243Z,47.10
2022-10-11T22:39:35.814Z,43.50
2022-10-11T22:42:02.420Z,43.10
2022-10-11T22:44:28.870Z,41.80
2022-10-11T22:46:55.396Z,41.40
2022-10-11T22:49:21.936Z,41.60
2022-10-11T22:51:48.375Z,41.60
2022-10-11T22:54:15.372Z,41.90
2022-10-11T22:56:41.831Z,41.30
2022-10-11T22:59:08.380Z,40.30
2022-10-11T23:01:34.947Z,41.50
2022-10-11T23:04:01.444Z,39.80
2022-10-11T23:06:28.026Z,40.70
2022-10-11T23:08:54.564Z,41.70
2022-10-11T23:11:20.983Z,39.30
2022-10-11T23:13:47.434Z,41.90
2022-10-11T23:16:14.288Z,41.30
2022-10-11T23:18:41.564Z,42.00
2022-10-11T23:21:08.535Z,40.90
2022-10-11T23:23:36.158Z,38.30
2022-10-11T23:26:08.656Z,53.10
2022-10-11T23:28:35.989Z,58.20
2022-10-11T23:31:08.627Z,41.80
2022-10-11T23:33:35.344Z,38.20
2022-10-11T23:36:02.382Z,51.00
2022-10-11T23:38:29.044Z,49.20
2022-10-11T23:40:55.562Z,48.10
2022-10-11T23:43:22.819Z,43.40
2022-10-11T23:45:49.359Z,42.80
2022-10-11T23:48:15.897Z,42.40
2022-10-11T23:50:42.601Z,43.30
2022-10-11T23:53:09.084Z,37.10
2022-10-11T23:55:35.625Z,35.20
2022-10-11T23:58:02.167Z,34.40
